Weather History for Slayton, MN

Change the Weather History Date:

Thursday, March 7, 2013

  Actual Average (KOTG) Record (KOTG)
Temperature  
Mean Temperature 24 °F -  
Max Temperature 32 °F 27 °F 71 °F (1987)
Min Temperature 16 °F 14 °F -12 °F (1984)
Degree Days  
Heating Degree Days 41    
Moisture  
Dew Point 21 °F    
Average Humidity 92    
Maximum Humidity 99    
Minimum Humidity 80    
Precipitation  
Precipitation 0.00 in - - ()
Sea Level Pressure  
Sea Level Pressure 30.21 in    
Wind  
Wind Speed 15 mph (SE)    
Max Wind Speed 23 mph    
Max Gust Speed 25 mph    
Visibility 6 miles    
Events      
Averages and records for this station are not official NWS values.
T = Trace of Precipitation, MM = Missing Value Source: NWS Daily Summary

Daily Weather History Graph

Daily Weather History Graph

Search for Another Location

Airport:

Trip Planner

Search our weather history database for the weather conditions in past years. The results will help you decide how hot, cold, wet, or windy it might be!

Date:

Astronomy

Mar. 07, 2013 Rise Set
Actual Time 6:49 AM CST 6:19 PM CST
Civil Twilight 6:20 AM CST 6:48 PM CST
Nautical Twilight 5:47 AM CST 7:21 PM CST
Astronomical Twilight 5:13 AM CST 7:55 PM CST
Moon 3:57 AM CST (3/7) 2:01 PM CST (3/7)
Length of Visible Light 12h 28m
Length of Day
11h 30m
Waning Crescent, 20% of the Moon is Illuminated
Mar 7
Waning Crescent
Mar 11
New
Mar 19
First Quarter
Mar 27
Full
Apr 2
Last Quarter

Hourly Weather History & Observations

Time (CST) Temp. Windchill Dew Point Humidity Pressure Visibility Wind Dir Wind Speed Gust Speed Precip Events Conditions
12:15 AM 19.6 °F 8.1 °F 18.1 °F 94% 30.27 in 10.0 mi SE 10.4 mph - N/A   Overcast
12:35 AM 19.4 °F 6.0 °F 18.0 °F 94% 30.26 in 10.0 mi ESE 13.8 mph 17.3 mph N/A   Overcast
12:55 AM 19.2 °F 7.0 °F 18.0 °F 95% 30.26 in 10.0 mi ESE 11.5 mph - N/A   Overcast
1:15 AM 19.4 °F 6.6 °F 18.1 °F 95% 30.27 in 10.0 mi SE 12.7 mph - N/A   Overcast
1:35 AM 18.7 °F 6.3 °F 17.6 °F 96% 30.28 in 10.0 mi SE 11.5 mph - N/A   Overcast
1:55 AM 18.5 °F 5.5 °F 17.6 °F 96% 30.28 in 10.0 mi ESE 12.7 mph - N/A   Overcast
2:15 AM 18.3 °F 4.1 °F 17.4 °F 96% 30.27 in 10.0 mi ESE 15.0 mph - N/A   Overcast
2:35 AM 18.1 °F 5.0 °F 17.4 °F 97% 30.27 in 10.0 mi SE 12.7 mph - N/A   Overcast
2:55 AM 18.0 °F 4.2 °F 17.4 °F 98% 30.26 in 10.0 mi SE 13.8 mph - N/A   Overcast
3:15 AM 18.1 °F 4.4 °F 17.4 °F 97% 30.27 in 7.0 mi SE 13.8 mph - N/A   Overcast
3:35 AM 18.1 °F 5.6 °F 17.6 °F 98% 30.27 in 10.0 mi SE 11.5 mph - N/A   Overcast
3:55 AM 18.0 °F 4.2 °F 17.4 °F 98% 30.25 in 10.0 mi SE 13.8 mph - N/A   Overcast
4:15 AM 18.0 °F 2.6 °F 17.4 °F 98% 30.24 in 5.0 mi ESE 17.3 mph - N/A   Overcast
4:35 AM 17.6 °F 3.7 °F 17.1 °F 98% 30.25 in 5.0 mi SE 13.8 mph - N/A   Overcast
4:54 AM 17.6 °F 3.2 °F 16.7 °F 96% 30.25 in 7.0 mi SE 15.0 mph - N/A   Overcast
5:15 AM 17.6 °F 3.2 °F 17.1 °F 98% 30.26 in 7.0 mi ESE 15.0 mph - N/A   Overcast
5:35 AM 17.4 °F 2.4 °F 16.7 °F 97% 30.26 in 7.0 mi SE 16.1 mph - N/A   Overcast
5:55 AM 17.1 °F 2.5 °F 16.3 °F 97% 30.26 in 5.0 mi SE 15.0 mph - N/A   Overcast
6:15 AM 17.1 °F 1.0 °F 16.3 °F 97% 30.24 in 5.0 mi ESE 18.4 mph - N/A   Overcast
6:35 AM 16.7 °F 1.5 °F 15.8 °F 96% 30.25 in 4.0 mi SE 16.1 mph - N/A   Overcast
6:55 AM 16.7 °F 1.0 °F 16.0 °F 97% 30.25 in 4.0 mi SE 17.3 mph - N/A   Overcast
7:15 AM 17.2 °F 1.7 °F 16.5 °F 97% 30.24 in 3.0 mi SE 17.3 mph - N/A   Overcast
7:35 AM 17.6 °F 2.7 °F 17.1 °F 98% 30.24 in 3.0 mi SE 16.1 mph - N/A   Overcast
7:55 AM 17.6 °F 2.2 °F 16.9 °F 97% 30.24 in 2.0 mi SE 17.3 mph - N/A   Overcast
8:15 AM 18.0 °F 2.2 °F 17.4 °F 98% 30.24 in 3.0 mi SSE 18.4 mph - N/A   Overcast
8:35 AM 18.1 °F 2.4 °F 17.4 °F 97% 30.24 in 1.5 mi SE 18.4 mph - N/A   Overcast
8:55 AM 18.7 °F 4.6 °F 18.3 °F 98% 30.23 in 3.0 mi SSE 15.0 mph 23.0 mph N/A   Overcast
9:15 AM 19.6 °F 4.7 °F 19.2 °F 99% 30.22 in 7.0 mi SE 17.3 mph - N/A   Mostly Cloudy
9:35 AM 20.7 °F 6.1 °F 20.1 °F 98% 30.23 in 7.0 mi SE 17.3 mph - N/A   Scattered Clouds
9:55 AM 21.4 °F 6.6 °F 20.3 °F 96% 30.23 in 7.0 mi SE 18.4 mph - N/A   Clear
10:15 AM 22.5 °F 8.0 °F 20.3 °F 91% 30.22 in 7.0 mi SE 18.4 mph - N/A   Clear
10:34 AM 23.7 °F 10.1 °F 20.8 °F 89% 30.22 in 7.0 mi SSE 17.3 mph - N/A   Scattered Clouds
10:55 AM 25.0 °F 11.3 °F 21.9 °F 88% 30.22 in 7.0 mi SSE 18.4 mph - N/A   Clear
11:15 AM 25.3 °F 11.0 °F 21.7 °F 86% 30.22 in 7.0 mi SE 20.7 mph - N/A   Clear
11:35 AM 26.8 °F 12.9 °F 23.2 °F 86% 30.21 in 7.0 mi SE 20.7 mph - N/A   Clear
11:55 AM 28.2 °F 15.5 °F 23.5 °F 83% 30.21 in 7.0 mi SE 18.4 mph - N/A   Clear
12:15 PM 28.6 °F 16.0 °F 24.3 °F 84% 30.21 in 7.0 mi SE 18.4 mph - N/A   Clear
12:35 PM 29.3 °F 17.3 °F 24.3 °F 81% 30.20 in 7.0 mi SE 17.3 mph - N/A   Clear
12:55 PM 29.7 °F 17.4 °F 24.6 °F 81% 30.19 in 7.0 mi SE 18.4 mph - N/A   Clear
1:15 PM 30.2 °F 17.8 °F 25.5 °F 83% 30.18 in 7.0 mi SE 19.6 mph - N/A   Clear
1:35 PM 30.7 °F 18.5 °F 25.7 °F 82% 30.17 in 7.0 mi ESE 19.6 mph - N/A   Clear
1:55 PM 30.6 °F 17.3 °F 25.5 °F 82% 30.17 in 7.0 mi SE 23.0 mph - N/A   Clear
2:15 PM 31.6 °F 19.3 °F 26.1 °F 80% 30.15 in 7.0 mi ESE 20.7 mph - N/A   Clear
2:35 PM 31.8 °F 20.2 °F 26.6 °F 81% 30.15 in 7.0 mi ESE 18.4 mph - N/A   Clear
2:56 PM 31.6 °F 20.0 °F 27.0 °F 83% 30.14 in 7.0 mi ESE 18.4 mph - N/A   Clear
3:15 PM 32.0 °F 20.8 °F 27.3 °F 83% 30.16 in 7.0 mi ESE 17.3 mph - N/A   Clear
3:35 PM 31.8 °F 20.2 °F 27.0 °F 82% 30.16 in 7.0 mi ESE 18.4 mph - N/A   Clear
3:55 PM 31.6 °F 20.4 °F 26.8 °F 82% 30.15 in 7.0 mi SE 17.3 mph - N/A   Clear
4:15 PM 31.1 °F 18.6 °F 26.1 °F 82% 30.15 in 7.0 mi ESE 20.7 mph - N/A   Clear
4:35 PM 30.2 °F 17.1 °F 25.7 °F 83% 30.14 in 7.0 mi ESE 21.9 mph - N/A   Clear
4:55 PM 29.8 °F 17.0 °F 25.7 °F 85% 30.14 in 7.0 mi SE 20.7 mph 24.2 mph N/A   Clear
5:15 PM 29.3 °F 17.0 °F 25.7 °F 86% 30.14 in 7.0 mi SE 18.4 mph - N/A   Clear
5:35 PM 28.4 °F 14.7 °F 25.5 °F 89% 30.12 in 7.0 mi SE 21.9 mph 25.3 mph N/A   Clear
5:55 PM 28.4 °F 15.1 °F 25.5 °F 89% 30.14 in 7.0 mi SE 20.7 mph 24.2 mph N/A   Clear
7:35 PM 25.7 °F 15.1 °F 23.9 °F 93% 30.18 in 7.0 mi SE 11.5 mph - N/A   Clear
7:55 PM 25.5 °F 14.9 °F 23.9 °F 94% 30.18 in 7.0 mi SE 11.5 mph - N/A   Clear
8:15 PM 25.2 °F 13.9 °F 23.9 °F 95% 30.18 in 7.0 mi SE 12.7 mph - N/A   Clear
8:35 PM 25.2 °F 14.4 °F 24.1 °F 96% 30.18 in 7.0 mi SE 11.5 mph - N/A   Clear
8:55 PM 25.7 °F 12.3 °F 24.6 °F 96% 30.17 in 5.0 mi SSE 18.4 mph - N/A   Clear
9:15 PM 25.5 °F 14.3 °F 24.3 °F 95% 30.17 in 5.0 mi SSE 12.7 mph - N/A   Clear
9:35 PM 25.7 °F 14.0 °F 24.6 °F 96% 30.18 in 5.0 mi SSE 13.8 mph - N/A   Clear
9:55 PM 25.3 °F 14.1 °F 23.9 °F 94% 30.19 in 5.0 mi SSE 12.7 mph - N/A   Clear
10:15 PM 24.4 °F 13.0 °F 23.2 °F 95% 30.18 in 4.0 mi SE 12.7 mph - N/A   Clear
10:35 PM 24.6 °F 13.2 °F 23.7 °F 96% 30.18 in 4.0 mi SE 12.7 mph - N/A   Clear
10:55 PM 23.9 °F 13.5 °F 23.2 °F 97% 30.18 in 4.0 mi SE 10.4 mph - N/A   Clear
11:15 PM 24.6 °F 14.4 °F 23.7 °F 96% 30.19 in 4.0 mi SSE 10.4 mph - N/A   Clear
11:34 PM 24.8 °F 14.0 °F 23.9 °F 96% 30.19 in 5.0 mi SSE 11.5 mph - N/A   Clear
11:55 PM 23.4 °F 12.2 °F 22.5 °F 96% 30.19 in 4.0 mi SSE 11.5 mph - N/A   Clear